Record high temperature 100.4°F Record low temperature 10.6°F Record high gust 40 mph Record high average 22.8 mph Record daily rain 11.65 in. Record low windchill 2.7°F Record high barometer 30.773 in. Record low barometer 29.184 in.
Daily high pressure 30.062 in. Daily low pressure 30.013 in. Daily low windchill 49.3°F Daily high heat index 66.8°F Daily high gust speed 5.0 mph W Daily high average speed 2.1 mph WSW
Forecast: increasing clouds with little temp. change. precipitation possible within 24 to 48 hrs.
On the Greenway Weather Data - Tigard OR
LAST READING AT TIME: 10:59 AM DATE: August 21 2014, time of next update: 11:00 am
Current Weather/Dry Current Temperature 66.8°F (19.3°C) (Heat Index 66.8°F ), Apparent temp 68.1°F
Maximum Temperature (since midnight)66.8°F at: 10:58 AM Minimum Temperature (since midnight)49.3°F at: 6:05 AM
Average windspeed (ten minute)1.0 mph Wind Direction (ten minute)W (262°)
Heat Index 66.8°F Maximum Gust (last hour) 5 mph at: 10:47 AM
Maximum Gust (since midnight) 5 mph at: 9:36 AM Maximum 1 minute average (since midnight)2.1 mph at: 9:55 AM
Rainfall (last hour)0.00 in. (0.0 mm) Rainfall (since midnight)0.00 in. (0.0 mm) ---
Rainfall This month 0.04 in. (1.0 mm) Rainfall To date this year 30.74 in. (780.7 mm)
Maximum rain per minute (last hour)0.00 in/min Maximum rain per hour (last 6 hours)0.00 in/hour
Yesterdays rainfall 0.00 in DewPoint 53.8°F (Wet Bulb :59.5°F )
Humidity 63 %, Humidex 71.0°F Barometer corrected to msl30.054 in. (1017.8 hPa)
Pressure change 0.00 in. (last hour) Trend (last hour)STEADY
Pressure change (last 12 hours)+0.05 in Pressure change (last 6 hours)+0.01 in

This page is updated from recent data collected by a DAVIS VANTAGE PRO weather station Use the Reload or Refresh facility on your browser to retrieve the latest data.


Click here for the last 24 hour graph
Click here for the last 48 hour graph
Click here for the last 72 hour graph
Click here for the month to date graph


Weather report/Warning/Metars

PORTLAND-HILLSBORO AIRPORT, OR, United States (KHIO) 45-33N 122-57W 68M
Aug 21, 2014 - 12:53 PM EDT / 2014.08.21 1653 UTC
Wind: Calm:0
Visibility: 10 mile(s):0
Sky conditions: clear
Temperature: 60.1 F (15.6 C)
Dew Point: 50.0 F (10.0 C)
Relative Humidity: 69%
Pressure (altimeter): 30.06 in. Hg (1017 hPa)
ob: KHIO 211653Z 00000KT 10SM CLR 16/10 A3006 RMK AO2 SLP176 T01560100
cycle: 17
PORTLAND INTERNATIONAL  AIRPORT, OR, United States (KPDX) 45-35N 122-36W 7M
Aug 21, 2014 - 12:53 PM EDT / 2014.08.21 1653 UTC
Wind: from the NNE (030 degrees) at 5 MPH (4 KT):0
Visibility: 10 mile(s):0
Sky conditions: mostly cloudy
Temperature: 62.1 F (16.7 C)
Dew Point: 51.1 F (10.6 C)
Relative Humidity: 67%
Pressure (altimeter): 30.06 in. Hg (1017 hPa)
ob: KPDX 211653Z 03004KT 10SM FEW015 BKN240 17/11 A3006 RMK AO2 SLP178 T01670106
cycle: 17
PORTLAND-TROUTDALE AIRPORT, OR, United States (KTTD) 45-33N 122-25W 14M
Aug 21, 2014 - 12:53 PM EDT / 2014.08.21 1653 UTC
Wind: Calm:0
Visibility: 10 mile(s):0
Sky conditions: clear
Temperature: 62.1 F (16.7 C)
Dew Point: 51.1 F (10.6 C)
Relative Humidity: 67%
Pressure (altimeter): 30.05 in. Hg (1017 hPa)
ob: KTTD 211653Z 00000KT 10SM CLR 17/11 A3005 RMK AO2 SLP175 T01670106
cycle: 17
MCMINNVILLE MUNICIPAL AIRPORT , OR, United States (KMMV) 45-12N 123-08W 48M
Aug 21, 2014 - 12:53 PM EDT / 2014.08.21 1653 UTC
Wind: Calm:0
Visibility: 10 mile(s):0
Sky conditions: mostly cloudy
Temperature: 62.1 F (16.7 C)
Dew Point: 50.0 F (10.0 C)
Relative Humidity: 64%
Pressure (altimeter): 30.07 in. Hg (1018 hPa)
ob: KMMV 211653Z AUTO 00000KT 10SM BKN100 17/10 A3007 RMK AO2 SLP182 T01670100
cycle: 17
SALEM MCNARY FIELD, OR, United States (KSLE) 44-54N 123-00W 59M
Aug 21, 2014 - 12:56 PM EDT / 2014.08.21 1656 UTC
Wind: Variable at 3 MPH (3 KT):0
Visibility: 10 mile(s):0
Sky conditions: mostly clear
Temperature: 63.0 F (17.2 C)
Dew Point: 51.1 F (10.6 C)
Relative Humidity: 65%
Pressure (altimeter): 30.05 in. Hg (1017 hPa)
ob: KSLE 211656Z VRB03KT 10SM FEW095 17/11 A3005 RMK AO2 SLP176 T01720106
cycle: 17


Sunset at:
8:10 pm

Moonrise at:
2:49 am 08/21/14

Moonset at:
4:56 pm 08/20/14

First Quarter  4 August 2014
Full moon  10 August 2014
Last Quarter17 August 2014
New moon 25 August 2014
Moon age: 25 days,16 hours,22 minutes,16%
Hours of possible daylight today was 13:51



Use the RELOAD facility on your browser to retrieve the latest data.

Click here for current Fire weather info
Click here for the daily CLIMATOLOGICAL SUMMARY
Click here for a daily update of the averages/extremes to date for the month




Created by "Weather Display" software version 10.37R Build 81 at this start time/date 6:59 pm 6/25/2014




On The Greenway Weather Web Site

 
 
HELP US OUT
Help us keep this weather station on the web. for the Tigard / Portland internet users to use. If you would like to help, click the donate button below
 
This site is purely funded by donations and by myself (Ray Cooper)
Anything you can do will help keep this station on the net
Average cost per year is $665 to publish and host this site excluding the cost of the weather equipment
Buyastrostuff.com is kind enough to host our DNS and email at no cost.
THANKS GUYS & Gals for helping
Have a Question,or just want to talk. Contact me at:
Ray Cooper @ Buyastrostuff.com